Elk Ranch, Arkansas
Current Conditions -  °F | °C
As of 12:57 AM on Friday 28 Nov 2014 (Local Time) from KROG Reporting Station
Clear Clear  
Wind Chill: 28°   Ceiling: Unl
Heat Index: 35°   Visibility: 10mi
Dew Point: 25°   Wind: 9mph
Humidity: 67%   Direction: 160°SSE
Pressure: 30.28"   Gusts: NA
Location:  36.4036°N, 93.7443°W
Report Text: KROG 280657Z AUTO 16008KT 10SM CLR 02/M04 A3028 RMK AO2 SLP261 T00171039 TSNO
Loading
Personal Weather Stations






























Interactive Weather Map New forecast layout! Learn more

10-Day Weather Forecast

Advertisements
Track Severe Weather on mobile